createdAt,value
2023-04-02T10:14:55.868Z,100931.28
2023-04-02T10:17:23.355Z,100926.56
2023-04-02T10:19:55.982Z,100923.06
2023-04-02T10:22:22.681Z,100934.94
2023-04-02T10:24:49.290Z,100939.34
2023-04-02T10:31:04.448Z,100959.16
2023-04-02T10:33:34.745Z,100950.78
2023-04-02T10:36:19.377Z,100961.72
2023-04-02T10:38:51.099Z,100970.59
2023-04-02T10:41:26.672Z,100973.44
2023-04-02T10:43:59.251Z,100977.47
2023-04-02T10:46:27.465Z,100982.22
2023-04-02T10:48:57.189Z,100984.13
2023-04-02T10:51:23.391Z,100986.41
2023-04-02T10:53:49.579Z,100994.22
2023-04-02T10:56:16.062Z,100997.34
2023-04-02T10:58:56.236Z,100998.00
2023-04-02T11:01:29.142Z,101009.00
2023-04-02T11:03:58.780Z,101013.53
2023-04-02T11:06:43.985Z,101012.13
2023-04-02T11:09:16.513Z,101023.53
2023-04-02T13:02:18.405Z,101188.16
2023-04-02T13:12:32.079Z,101190.72
2023-04-02T13:17:29.673Z,101186.00
2023-04-02T13:19:56.066Z,101197.09
2023-04-02T13:26:56.918Z,101200.31
2023-04-02T13:29:25.016Z,101209.81
2023-04-02T13:31:52.595Z,101210.38
2023-04-02T13:34:19.186Z,101218.03
2023-04-02T13:36:45.826Z,101212.75
2023-04-02T13:39:12.237Z,101224.63
2023-04-02T13:41:49.921Z,101230.13
2023-04-02T13:44:19.406Z,101227.06
2023-04-02T13:46:46.444Z,101236.72
2023-04-02T13:49:12.887Z,101232.28
2023-04-02T13:51:41.916Z,101231.97
2023-04-02T13:54:15.231Z,101236.13
2023-04-02T13:56:41.850Z,101232.22
2023-04-02T13:59:08.284Z,101239.69
2023-04-02T14:01:35.130Z,101237.19
2023-04-02T14:04:02.577Z,101244.34
2023-04-02T14:06:44.780Z,101250.13
2023-04-02T14:09:21.330Z,101248.75
2023-04-02T14:12:00.024Z,101251.50
2023-04-02T14:14:38.096Z,101247.06
2023-04-02T14:17:40.798Z,101259.50
2023-04-02T14:20:12.304Z,101269.69
2023-04-02T14:22:38.730Z,101270.81
2023-04-02T14:25:14.986Z,101273.56
2023-04-02T14:27:42.183Z,101274.66
2023-04-02T14:30:08.642Z,101284.06
2023-04-02T14:32:44.125Z,101288.19
2023-04-02T14:35:13.492Z,101285.16
2023-04-02T14:37:45.763Z,101287.31
2023-04-02T14:40:21.499Z,101293.94
2023-04-02T14:42:53.826Z,101298.91
2023-04-02T14:45:43.880Z,101301.69
2023-04-02T14:48:13.001Z,101303.59
2023-04-02T14:50:41.076Z,101309.41
2023-04-02T14:53:11.809Z,101304.16
2023-04-02T14:55:43.780Z,101305.53
2023-04-02T14:58:15.216Z,101304.16
2023-04-02T15:00:44.045Z,101312.16
2023-04-02T15:03:21.429Z,101319.84
2023-04-02T15:05:49.688Z,101319.03
2023-04-02T15:08:16.132Z,101326.47
2023-04-02T15:10:54.221Z,101330.91
2023-04-02T15:13:22.992Z,101330.09
2023-04-02T15:15:52.705Z,101333.09
2023-04-02T15:18:19.200Z,101335.84
2023-04-02T15:20:48.340Z,101336.09
2023-04-02T15:23:32.273Z,101346.88
2023-04-02T15:26:05.364Z,101343.28
2023-04-02T15:28:38.262Z,101342.47
2023-04-02T15:31:11.490Z,101352.66
2023-04-02T15:33:37.939Z,101351.31
2023-04-02T15:36:04.447Z,101355.75
2023-04-02T15:38:38.310Z,101351.91
2023-04-02T15:41:10.661Z,101363.53
2023-04-02T15:43:56.670Z,101372.38
2023-04-02T15:46:38.028Z,101374.03
2023-04-02T15:49:08.976Z,101371.84
2023-04-02T15:51:35.362Z,101384.56
2023-04-02T15:54:10.080Z,101379.03
2023-04-02T15:56:55.491Z,101393.41
2023-04-02T15:59:22.182Z,101396.19
2023-04-02T16:01:59.674Z,101395.09
2023-04-02T16:04:37.619Z,101408.91
2023-04-02T16:07:04.081Z,101407.78
2023-04-02T16:09:39.770Z,101422.44
2023-04-02T16:12:13.678Z,101418.81
2023-04-02T16:14:41.134Z,101426.28
2023-04-02T16:17:23.668Z,101432.91
2023-04-02T16:19:53.113Z,101441.44
2023-04-02T16:22:22.958Z,101437.59
